sensor_id;sensor_type;location;lat;lon;timestamp;P1;durP1;ratioP1;P2;durP2;ratioP2
4375;SDS011;2202;50.866;12.750;2023-02-07T00:00:07;33.97;;;20.47;;
4375;SDS011;2202;50.866;12.750;2023-02-07T00:02:35;28.97;;;19.87;;
4375;SDS011;2202;50.866;12.750;2023-02-07T00:05:02;39.73;;;20.70;;
4375;SDS011;2202;50.866;12.750;2023-02-07T00:07:29;32.63;;;20.40;;
4375;SDS011;2202;50.866;12.750;2023-02-07T00:09:58;35.17;;;20.30;;
4375;SDS011;2202;50.866;12.750;2023-02-07T00:12:25;36.97;;;20.43;;
4375;SDS011;2202;50.866;12.750;2023-02-07T00:14:51;34.90;;;21.10;;
4375;SDS011;2202;50.866;12.750;2023-02-07T00:17:19;38.57;;;23.43;;
4375;SDS011;2202;50.866;12.750;2023-02-07T00:19:45;30.60;;;21.13;;
4375;SDS011;2202;50.866;12.750;2023-02-07T00:22:12;33.47;;;22.40;;
4375;SDS011;2202;50.866;12.750;2023-02-07T00:24:39;31.77;;;21.30;;
4375;SDS011;2202;50.866;12.750;2023-02-07T00:27:07;33.67;;;21.63;;
4375;SDS011;2202;50.866;12.750;2023-02-07T00:29:34;31.13;;;19.77;;
4375;SDS011;2202;50.866;12.750;2023-02-07T00:32:01;29.00;;;18.73;;
4375;SDS011;2202;50.866;12.750;2023-02-07T00:34:28;32.27;;;19.47;;
4375;SDS011;2202;50.866;12.750;2023-02-07T00:36:55;29.60;;;17.73;;
4375;SDS011;2202;50.866;12.750;2023-02-07T00:39:22;27.07;;;17.93;;
4375;SDS011;2202;50.866;12.750;2023-02-07T00:41:49;26.20;;;17.73;;
4375;SDS011;2202;50.866;12.750;2023-02-07T00:44:17;24.53;;;17.03;;
4375;SDS011;2202;50.866;12.750;2023-02-07T00:46:44;31.37;;;20.17;;
4375;SDS011;2202;50.866;12.750;2023-02-07T00:49:11;25.93;;;19.67;;
4375;SDS011;2202;50.866;12.750;2023-02-07T00:51:38;28.47;;;20.30;;
4375;SDS011;2202;50.866;12.750;2023-02-07T00:54:05;29.00;;;19.87;;
4375;SDS011;2202;50.866;12.750;2023-02-07T00:56:32;44.70;;;20.30;;
4375;SDS011;2202;50.866;12.750;2023-02-07T00:58:59;43.00;;;22.10;;
4375;SDS011;2202;50.866;12.750;2023-02-07T01:01:27;32.23;;;19.67;;
4375;SDS011;2202;50.866;12.750;2023-02-07T01:03:54;31.70;;;21.53;;
4375;SDS011;2202;50.866;12.750;2023-02-07T01:06:21;37.70;;;23.70;;
4375;SDS011;2202;50.866;12.750;2023-02-07T01:08:48;35.93;;;22.00;;
4375;SDS011;2202;50.866;12.750;2023-02-07T01:11:16;38.33;;;23.63;;
4375;SDS011;2202;50.866;12.750;2023-02-07T01:13:43;50.70;;;28.70;;
4375;SDS011;2202;50.866;12.750;2023-02-07T01:16:19;48.60;;;32.83;;
4375;SDS011;2202;50.866;12.750;2023-02-07T01:18:51;44.73;;;28.07;;
4375;SDS011;2202;50.866;12.750;2023-02-07T01:21:19;48.47;;;28.90;;
4375;SDS011;2202;50.866;12.750;2023-02-07T01:23:48;46.63;;;27.87;;
4375;SDS011;2202;50.866;12.750;2023-02-07T01:26:15;47.40;;;26.90;;
4375;SDS011;2202;50.866;12.750;2023-02-07T01:28:42;46.97;;;27.27;;
4375;SDS011;2202;50.866;12.750;2023-02-07T01:31:09;55.40;;;30.63;;
4375;SDS011;2202;50.866;12.750;2023-02-07T01:33:38;49.83;;;30.37;;
4375;SDS011;2202;50.866;12.750;2023-02-07T01:36:07;65.77;;;32.57;;
4375;SDS011;2202;50.866;12.750;2023-02-07T01:38:35;81.30;;;35.80;;
4375;SDS011;2202;50.866;12.750;2023-02-07T01:41:02;47.00;;;26.90;;
4375;SDS011;2202;50.866;12.750;2023-02-07T01:43:30;58.13;;;31.17;;
4375;SDS011;2202;50.866;12.750;2023-02-07T01:45:57;44.07;;;29.30;;
4375;SDS011;2202;50.866;12.750;2023-02-07T01:48:25;51.30;;;30.40;;
4375;SDS011;2202;50.866;12.750;2023-02-07T01:50:55;47.43;;;28.87;;
4375;SDS011;2202;50.866;12.750;2023-02-07T01:53:26;40.50;;;25.63;;
4375;SDS011;2202;50.866;12.750;2023-02-07T01:55:55;35.00;;;23.40;;
4375;SDS011;2202;50.866;12.750;2023-02-07T01:58:25;29.43;;;22.13;;
4375;SDS011;2202;50.866;12.750;2023-02-07T02:00:53;28.60;;;19.63;;
4375;SDS011;2202;50.866;12.750;2023-02-07T02:03:20;27.50;;;19.53;;
4375;SDS011;2202;50.866;12.750;2023-02-07T02:05:47;26.27;;;17.57;;
4375;SDS011;2202;50.866;12.750;2023-02-07T02:08:18;24.23;;;17.77;;
4375;SDS011;2202;50.866;12.750;2023-02-07T02:10:59;29.50;;;21.43;;
4375;SDS011;2202;50.866;12.750;2023-02-07T02:13:35;34.67;;;20.20;;
4375;SDS011;2202;50.866;12.750;2023-02-07T02:16:11;33.47;;;20.90;;
4375;SDS011;2202;50.866;12.750;2023-02-07T02:18:46;41.30;;;27.30;;
4375;SDS011;2202;50.866;12.750;2023-02-07T02:27:52;50.17;;;25.80;;
4375;SDS011;2202;50.866;12.750;2023-02-07T02:30:48;50.53;;;28.93;;
4375;SDS011;2202;50.866;12.750;2023-02-07T02:33:44;44.27;;;26.40;;
4375;SDS011;2202;50.866;12.750;2023-02-07T02:36:20;32.87;;;22.57;;
4375;SDS011;2202;50.866;12.750;2023-02-07T02:38:52;29.20;;;19.03;;
4375;SDS011;2202;50.866;12.750;2023-02-07T02:41:27;33.07;;;20.80;;
4375;SDS011;2202;50.866;12.750;2023-02-07T02:44:01;31.13;;;16.27;;
4375;SDS011;2202;50.866;12.750;2023-02-07T02:46:34;25.03;;;16.07;;
4375;SDS011;2202;50.866;12.750;2023-02-07T02:49:06;33.07;;;18.13;;
4375;SDS011;2202;50.866;12.750;2023-02-07T02:51:35;30.33;;;19.00;;
4375;SDS011;2202;50.866;12.750;2023-02-07T02:54:02;22.63;;;15.80;;
4375;SDS011;2202;50.866;12.750;2023-02-07T02:56:44;24.70;;;16.10;;
4375;SDS011;2202;50.866;12.750;2023-02-07T03:02:25;26.10;;;18.20;;
4375;SDS011;2202;50.866;12.750;2023-02-07T03:05:07;27.93;;;18.00;;
4375;SDS011;2202;50.866;12.750;2023-02-07T03:07:46;22.00;;;16.50;;
4375;SDS011;2202;50.866;12.750;2023-02-07T03:10:24;27.73;;;18.17;;
4375;SDS011;2202;50.866;12.750;2023-02-07T03:12:57;26.37;;;17.03;;
4375;SDS011;2202;50.866;12.750;2023-02-07T03:15:32;28.87;;;17.47;;
4375;SDS011;2202;50.866;12.750;2023-02-07T03:18:11;20.57;;;16.93;;
4375;SDS011;2202;50.866;12.750;2023-02-07T03:20:44;22.23;;;16.80;;
4375;SDS011;2202;50.866;12.750;2023-02-07T03:23:15;30.07;;;19.07;;
4375;SDS011;2202;50.866;12.750;2023-02-07T03:25:44;28.17;;;18.00;;
4375;SDS011;2202;50.866;12.750;2023-02-07T03:28:13;31.67;;;16.70;;
4375;SDS011;2202;50.866;12.750;2023-02-07T03:30:42;22.07;;;16.83;;
4375;SDS011;2202;50.866;12.750;2023-02-07T03:33:14;24.77;;;16.83;;
4375;SDS011;2202;50.866;12.750;2023-02-07T03:35:46;26.20;;;18.70;;
4375;SDS011;2202;50.866;12.750;2023-02-07T03:38:18;21.57;;;17.47;;
4375;SDS011;2202;50.866;12.750;2023-02-07T03:40:45;28.97;;;19.83;;
4375;SDS011;2202;50.866;12.750;2023-02-07T03:43:17;25.17;;;18.67;;
4375;SDS011;2202;50.866;12.750;2023-02-07T03:45:47;29.23;;;19.67;;
4375;SDS011;2202;50.866;12.750;2023-02-07T03:48:14;25.27;;;18.43;;
4375;SDS011;2202;50.866;12.750;2023-02-07T03:50:41;25.83;;;17.83;;
4375;SDS011;2202;50.866;12.750;2023-02-07T03:53:09;23.10;;;17.40;;
4375;SDS011;2202;50.866;12.750;2023-02-07T03:55:36;27.37;;;18.90;;
4375;SDS011;2202;50.866;12.750;2023-02-07T03:58:03;25.87;;;17.23;;
4375;SDS011;2202;50.866;12.750;2023-02-07T04:00:31;24.50;;;18.13;;
4375;SDS011;2202;50.866;12.750;2023-02-07T04:02:58;24.80;;;19.17;;
4375;SDS011;2202;50.866;12.750;2023-02-07T04:05:25;27.27;;;18.83;;
4375;SDS011;2202;50.866;12.750;2023-02-07T04:07:52;22.47;;;15.20;;
4375;SDS011;2202;50.866;12.750;2023-02-07T04:10:20;25.07;;;17.60;;
4375;SDS011;2202;50.866;12.750;2023-02-07T04:12:47;25.70;;;17.50;;
4375;SDS011;2202;50.866;12.750;2023-02-07T04:15:14;25.10;;;16.07;;
4375;SDS011;2202;50.866;12.750;2023-02-07T04:17:41;29.90;;;18.23;;
4375;SDS011;2202;50.866;12.750;2023-02-07T04:20:09;22.37;;;15.27;;
4375;SDS011;2202;50.866;12.750;2023-02-07T04:22:36;26.93;;;17.90;;
4375;SDS011;2202;50.866;12.750;2023-02-07T04:25:04;27.20;;;19.70;;
4375;SDS011;2202;50.866;12.750;2023-02-07T04:27:32;25.73;;;18.10;;
4375;SDS011;2202;50.866;12.750;2023-02-07T04:29:59;30.90;;;15.43;;
4375;SDS011;2202;50.866;12.750;2023-02-07T04:32:26;27.37;;;19.13;;
4375;SDS011;2202;50.866;12.750;2023-02-07T04:34:53;26.40;;;17.13;;
4375;SDS011;2202;50.866;12.750;2023-02-07T04:37:20;25.00;;;16.43;;
4375;SDS011;2202;50.866;12.750;2023-02-07T04:39:47;30.00;;;19.30;;
4375;SDS011;2202;50.866;12.750;2023-02-07T04:42:13;26.65;;;17.92;;
4375;SDS011;2202;50.866;12.750;2023-02-07T04:44:42;25.50;;;17.90;;
4375;SDS011;2202;50.866;12.750;2023-02-07T04:47:08;23.87;;;17.53;;
4375;SDS011;2202;50.866;12.750;2023-02-07T04:49:35;28.70;;;21.63;;
4375;SDS011;2202;50.866;12.750;2023-02-07T04:52:02;32.57;;;19.77;;
4375;SDS011;2202;50.866;12.750;2023-02-07T04:54:29;25.20;;;18.00;;
4375;SDS011;2202;50.866;12.750;2023-02-07T04:56:56;24.30;;;19.17;;
4375;SDS011;2202;50.866;12.750;2023-02-07T04:59:23;26.73;;;17.17;;
4375;SDS011;2202;50.866;12.750;2023-02-07T05:01:51;28.00;;;17.70;;
4375;SDS011;2202;50.866;12.750;2023-02-07T05:04:18;25.97;;;18.27;;
4375;SDS011;2202;50.866;12.750;2023-02-07T05:06:44;25.08;;;20.27;;
4375;SDS011;2202;50.866;12.750;2023-02-07T05:09:11;26.30;;;18.20;;
4375;SDS011;2202;50.866;12.750;2023-02-07T05:11:38;22.53;;;17.83;;
4375;SDS011;2202;50.866;12.750;2023-02-07T05:14:05;30.87;;;20.37;;
4375;SDS011;2202;50.866;12.750;2023-02-07T05:16:32;34.77;;;19.00;;
4375;SDS011;2202;50.866;12.750;2023-02-07T05:19:00;20.90;;;16.13;;
4375;SDS011;2202;50.866;12.750;2023-02-07T05:21:27;26.27;;;18.00;;
4375;SDS011;2202;50.866;12.750;2023-02-07T05:23:54;28.02;;;17.20;;
4375;SDS011;2202;50.866;12.750;2023-02-07T05:26:21;26.63;;;19.65;;
4375;SDS011;2202;50.866;12.750;2023-02-07T05:28:48;26.67;;;19.40;;
4375;SDS011;2202;50.866;12.750;2023-02-07T05:31:14;25.17;;;16.70;;
4375;SDS011;2202;50.866;12.750;2023-02-07T05:33:41;23.83;;;18.50;;
4375;SDS011;2202;50.866;12.750;2023-02-07T05:36:09;27.80;;;18.00;;
4375;SDS011;2202;50.866;12.750;2023-02-07T05:38:35;23.53;;;16.60;;
4375;SDS011;2202;50.866;12.750;2023-02-07T05:41:03;25.33;;;17.02;;
4375;SDS011;2202;50.866;12.750;2023-02-07T05:43:30;26.77;;;19.87;;
4375;SDS011;2202;50.866;12.750;2023-02-07T05:45:57;26.17;;;19.15;;
4375;SDS011;2202;50.866;12.750;2023-02-07T05:48:23;36.35;;;21.73;;
4375;SDS011;2202;50.866;12.750;2023-02-07T05:50:50;33.95;;;20.88;;
4375;SDS011;2202;50.866;12.750;2023-02-07T05:53:18;29.85;;;19.70;;
4375;SDS011;2202;50.866;12.750;2023-02-07T05:55:45;27.77;;;18.40;;
4375;SDS011;2202;50.866;12.750;2023-02-07T05:58:15;26.77;;;19.50;;
4375;SDS011;2202;50.866;12.750;2023-02-07T06:00:42;22.50;;;18.17;;
4375;SDS011;2202;50.866;12.750;2023-02-07T06:03:09;26.53;;;18.77;;
4375;SDS011;2202;50.866;12.750;2023-02-07T06:05:36;26.83;;;18.10;;
4375;SDS011;2202;50.866;12.750;2023-02-07T06:08:02;25.77;;;19.20;;
4375;SDS011;2202;50.866;12.750;2023-02-07T06:10:31;28.07;;;19.10;;
4375;SDS011;2202;50.866;12.750;2023-02-07T06:12:58;25.43;;;19.63;;
4375;SDS011;2202;50.866;12.750;2023-02-07T06:15:25;29.47;;;19.53;;
4375;SDS011;2202;50.866;12.750;2023-02-07T06:17:51;27.77;;;19.10;;
4375;SDS011;2202;50.866;12.750;2023-02-07T06:20:18;26.10;;;18.80;;
4375;SDS011;2202;50.866;12.750;2023-02-07T06:22:46;31.40;;;20.40;;
4375;SDS011;2202;50.866;12.750;2023-02-07T06:25:13;25.80;;;17.80;;
4375;SDS011;2202;50.866;12.750;2023-02-07T06:27:42;26.98;;;19.90;;
4375;SDS011;2202;50.866;12.750;2023-02-07T06:30:09;30.85;;;20.55;;
4375;SDS011;2202;50.866;12.750;2023-02-07T06:32:37;36.40;;;20.53;;
4375;SDS011;2202;50.866;12.750;2023-02-07T06:35:04;25.70;;;19.30;;
4375;SDS011;2202;50.866;12.750;2023-02-07T06:37:31;32.53;;;21.65;;
4375;SDS011;2202;50.866;12.750;2023-02-07T06:39:59;22.77;;;18.25;;
4375;SDS011;2202;50.866;12.750;2023-02-07T06:42:26;29.20;;;18.47;;
4375;SDS011;2202;50.866;12.750;2023-02-07T06:44:54;22.97;;;16.40;;
4375;SDS011;2202;50.866;12.750;2023-02-07T06:47:21;28.00;;;18.80;;
4375;SDS011;2202;50.866;12.750;2023-02-07T06:49:47;29.98;;;18.30;;
4375;SDS011;2202;50.866;12.750;2023-02-07T06:52:14;21.87;;;16.87;;
4375;SDS011;2202;50.866;12.750;2023-02-07T06:54:41;26.30;;;17.90;;
4375;SDS011;2202;50.866;12.750;2023-02-07T06:57:08;27.27;;;17.45;;
4375;SDS011;2202;50.866;12.750;2023-02-07T06:59:35;26.90;;;18.70;;
4375;SDS011;2202;50.866;12.750;2023-02-07T07:02:03;24.60;;;19.10;;
4375;SDS011;2202;50.866;12.750;2023-02-07T07:04:30;27.85;;;18.63;;
4375;SDS011;2202;50.866;12.750;2023-02-07T07:06:57;31.50;;;20.80;;
4375;SDS011;2202;50.866;12.750;2023-02-07T07:09:24;37.63;;;18.92;;
4375;SDS011;2202;50.866;12.750;2023-02-07T07:11:51;31.58;;;20.17;;
4375;SDS011;2202;50.866;12.750;2023-02-07T07:14:18;29.43;;;18.90;;
4375;SDS011;2202;50.866;12.750;2023-02-07T07:16:45;24.35;;;18.33;;
4375;SDS011;2202;50.866;12.750;2023-02-07T07:19:13;29.73;;;20.40;;
4375;SDS011;2202;50.866;12.750;2023-02-07T07:21:40;31.80;;;19.90;;
4375;SDS011;2202;50.866;12.750;2023-02-07T07:24:07;27.53;;;19.93;;
4375;SDS011;2202;50.866;12.750;2023-02-07T07:26:34;37.73;;;20.80;;
4375;SDS011;2202;50.866;12.750;2023-02-07T07:29:01;39.97;;;21.87;;
4375;SDS011;2202;50.866;12.750;2023-02-07T07:31:29;31.23;;;19.03;;
4375;SDS011;2202;50.866;12.750;2023-02-07T07:33:55;29.40;;;20.07;;
4375;SDS011;2202;50.866;12.750;2023-02-07T07:36:24;29.20;;;19.30;;
4375;SDS011;2202;50.866;12.750;2023-02-07T07:38:51;26.00;;;17.07;;
4375;SDS011;2202;50.866;12.750;2023-02-07T07:41:18;23.93;;;17.70;;
4375;SDS011;2202;50.866;12.750;2023-02-07T07:43:45;30.17;;;20.30;;
4375;SDS011;2202;50.866;12.750;2023-02-07T07:46:11;29.00;;;17.77;;
4375;SDS011;2202;50.866;12.750;2023-02-07T07:48:38;31.23;;;19.97;;
4375;SDS011;2202;50.866;12.750;2023-02-07T07:51:05;35.67;;;21.97;;
4375;SDS011;2202;50.866;12.750;2023-02-07T07:53:33;34.50;;;21.67;;
4375;SDS011;2202;50.866;12.750;2023-02-07T07:56:00;40.20;;;22.40;;
4375;SDS011;2202;50.866;12.750;2023-02-07T07:58:27;42.43;;;25.70;;
4375;SDS011;2202;50.866;12.750;2023-02-07T08:00:54;50.17;;;25.83;;
4375;SDS011;2202;50.866;12.750;2023-02-07T08:03:21;91.40;;;34.23;;
4375;SDS011;2202;50.866;12.750;2023-02-07T08:05:49;63.50;;;27.90;;
4375;SDS011;2202;50.866;12.750;2023-02-07T08:08:16;66.97;;;28.27;;
4375;SDS011;2202;50.866;12.750;2023-02-07T08:10:45;36.80;;;24.67;;
4375;SDS011;2202;50.866;12.750;2023-02-07T08:13:13;44.83;;;23.40;;
4375;SDS011;2202;50.866;12.750;2023-02-07T08:15:41;42.93;;;23.10;;
4375;SDS011;2202;50.866;12.750;2023-02-07T08:18:08;32.97;;;22.27;;
4375;SDS011;2202;50.866;12.750;2023-02-07T08:20:35;46.17;;;25.87;;
4375;SDS011;2202;50.866;12.750;2023-02-07T08:23:02;34.40;;;23.90;;
4375;SDS011;2202;50.866;12.750;2023-02-07T08:25:29;37.83;;;24.20;;
4375;SDS011;2202;50.866;12.750;2023-02-07T08:27:57;36.07;;;25.90;;
4375;SDS011;2202;50.866;12.750;2023-02-07T08:30:24;32.30;;;24.80;;
4375;SDS011;2202;50.866;12.750;2023-02-07T08:32:51;36.37;;;26.70;;
4375;SDS011;2202;50.866;12.750;2023-02-07T08:35:19;30.50;;;24.50;;
4375;SDS011;2202;50.866;12.750;2023-02-07T08:37:46;35.80;;;26.13;;
4375;SDS011;2202;50.866;12.750;2023-02-07T08:40:13;33.47;;;26.83;;
4375;SDS011;2202;50.866;12.750;2023-02-07T08:42:40;36.50;;;29.93;;
4375;SDS011;2202;50.866;12.750;2023-02-07T08:45:09;36.73;;;24.23;;
4375;SDS011;2202;50.866;12.750;2023-02-07T08:47:36;33.67;;;23.40;;
4375;SDS011;2202;50.866;12.750;2023-02-07T08:50:03;35.73;;;24.57;;
4375;SDS011;2202;50.866;12.750;2023-02-07T08:52:31;35.67;;;21.50;;
4375;SDS011;2202;50.866;12.750;2023-02-07T08:54:57;32.73;;;23.67;;
4375;SDS011;2202;50.866;12.750;2023-02-07T08:57:24;26.33;;;19.97;;
4375;SDS011;2202;50.866;12.750;2023-02-07T08:59:51;28.37;;;21.03;;
4375;SDS011;2202;50.866;12.750;2023-02-07T09:02:20;26.50;;;20.43;;
4375;SDS011;2202;50.866;12.750;2023-02-07T09:04:47;28.80;;;20.10;;
4375;SDS011;2202;50.866;12.750;2023-02-07T09:07:14;29.73;;;21.57;;
4375;SDS011;2202;50.866;12.750;2023-02-07T09:09:40;32.07;;;21.90;;
4375;SDS011;2202;50.866;12.750;2023-02-07T09:12:07;39.70;;;26.33;;
4375;SDS011;2202;50.866;12.750;2023-02-07T09:14:35;38.43;;;26.60;;
4375;SDS011;2202;50.866;12.750;2023-02-07T09:17:03;30.27;;;24.60;;
4375;SDS011;2202;50.866;12.750;2023-02-07T09:19:32;33.60;;;23.20;;
4375;SDS011;2202;50.866;12.750;2023-02-07T09:22:00;35.90;;;25.00;;
4375;SDS011;2202;50.866;12.750;2023-02-07T09:24:27;39.03;;;25.87;;
4375;SDS011;2202;50.866;12.750;2023-02-07T09:26:53;30.97;;;21.77;;
4375;SDS011;2202;50.866;12.750;2023-02-07T09:29:20;34.37;;;23.50;;
4375;SDS011;2202;50.866;12.750;2023-02-07T09:31:47;38.13;;;23.70;;
4375;SDS011;2202;50.866;12.750;2023-02-07T09:34:14;38.23;;;23.30;;
4375;SDS011;2202;50.866;12.750;2023-02-07T09:36:42;30.27;;;23.60;;
4375;SDS011;2202;50.866;12.750;2023-02-07T09:39:10;34.13;;;22.60;;
4375;SDS011;2202;50.866;12.750;2023-02-07T09:41:39;31.20;;;23.60;;
4375;SDS011;2202;50.866;12.750;2023-02-07T09:44:14;34.90;;;23.43;;
4375;SDS011;2202;50.866;12.750;2023-02-07T09:46:46;36.90;;;23.27;;
4375;SDS011;2202;50.866;12.750;2023-02-07T09:49:19;35.00;;;23.77;;
4375;SDS011;2202;50.866;12.750;2023-02-07T09:51:56;47.57;;;28.00;;
4375;SDS011;2202;50.866;12.750;2023-02-07T09:54:25;41.37;;;28.13;;
4375;SDS011;2202;50.866;12.750;2023-02-07T09:56:58;42.53;;;29.10;;
4375;SDS011;2202;50.866;12.750;2023-02-07T09:59:30;44.10;;;29.60;;
4375;SDS011;2202;50.866;12.750;2023-02-07T10:02:12;39.57;;;29.27;;
4375;SDS011;2202;50.866;12.750;2023-02-07T10:04:43;39.60;;;28.67;;
4375;SDS011;2202;50.866;12.750;2023-02-07T10:07:15;43.03;;;27.50;;
4375;SDS011;2202;50.866;12.750;2023-02-07T10:09:43;37.40;;;26.80;;
4375;SDS011;2202;50.866;12.750;2023-02-07T10:12:17;47.37;;;27.40;;
4375;SDS011;2202;50.866;12.750;2023-02-07T10:15:10;37.40;;;26.93;;
4375;SDS011;2202;50.866;12.750;2023-02-07T10:17:53;34.37;;;24.20;;
4375;SDS011;2202;50.866;12.750;2023-02-07T10:20:30;29.77;;;22.73;;
4375;SDS011;2202;50.866;12.750;2023-02-07T10:23:05;29.10;;;22.13;;
4375;SDS011;2202;50.866;12.750;2023-02-07T10:25:44;21.53;;;17.10;;
4375;SDS011;2202;50.866;12.750;2023-02-07T10:28:26;22.30;;;17.13;;
4375;SDS011;2202;50.866;12.750;2023-02-07T10:31:15;19.40;;;16.30;;
4375;SDS011;2202;50.866;12.750;2023-02-07T10:33:46;18.37;;;14.47;;
4375;SDS011;2202;50.866;12.750;2023-02-07T10:36:15;20.23;;;14.33;;
4375;SDS011;2202;50.866;12.750;2023-02-07T10:38:45;15.40;;;13.80;;
4375;SDS011;2202;50.866;12.750;2023-02-07T10:41:19;16.50;;;12.60;;
4375;SDS011;2202;50.866;12.750;2023-02-07T10:43:50;18.10;;;14.10;;
4375;SDS011;2202;50.866;12.750;2023-02-07T10:46:19;24.40;;;15.97;;
4375;SDS011;2202;50.866;12.750;2023-02-07T10:48:48;25.20;;;17.07;;
4375;SDS011;2202;50.866;12.750;2023-02-07T10:51:19;18.13;;;14.13;;
4375;SDS011;2202;50.866;12.750;2023-02-07T10:54:00;19.10;;;15.57;;
4375;SDS011;2202;50.866;12.750;2023-02-07T10:56:33;21.67;;;15.50;;
4375;SDS011;2202;50.866;12.750;2023-02-07T10:59:05;18.27;;;14.57;;
4375;SDS011;2202;50.866;12.750;2023-02-07T11:01:52;22.63;;;17.43;;
4375;SDS011;2202;50.866;12.750;2023-02-07T11:04:23;27.20;;;19.43;;
4375;SDS011;2202;50.866;12.750;2023-02-07T11:06:59;30.30;;;22.53;;
4375;SDS011;2202;50.866;12.750;2023-02-07T11:09:28;25.37;;;21.50;;
4375;SDS011;2202;50.866;12.750;2023-02-07T11:11:55;29.17;;;20.57;;
4375;SDS011;2202;50.866;12.750;2023-02-07T11:14:24;24.47;;;19.27;;
4375;SDS011;2202;50.866;12.750;2023-02-07T11:16:52;30.57;;;21.57;;
4375;SDS011;2202;50.866;12.750;2023-02-07T11:19:21;26.73;;;19.80;;
4375;SDS011;2202;50.866;12.750;2023-02-07T11:21:50;28.27;;;20.07;;
4375;SDS011;2202;50.866;12.750;2023-02-07T11:24:19;25.27;;;20.47;;
4375;SDS011;2202;50.866;12.750;2023-02-07T11:26:55;26.90;;;19.70;;
4375;SDS011;2202;50.866;12.750;2023-02-07T11:29:26;28.83;;;19.73;;
4375;SDS011;2202;50.866;12.750;2023-02-07T11:31:54;26.70;;;20.03;;
4375;SDS011;2202;50.866;12.750;2023-02-07T11:34:29;29.30;;;20.53;;
4375;SDS011;2202;50.866;12.750;2023-02-07T11:37:09;25.80;;;19.73;;
4375;SDS011;2202;50.866;12.750;2023-02-07T11:39:45;26.80;;;18.93;;
4375;SDS011;2202;50.866;12.750;2023-02-07T11:42:17;27.90;;;21.03;;
4375;SDS011;2202;50.866;12.750;2023-02-07T11:44:46;31.33;;;22.10;;
4375;SDS011;2202;50.866;12.750;2023-02-07T11:47:14;32.53;;;23.83;;
4375;SDS011;2202;50.866;12.750;2023-02-07T11:49:44;44.60;;;26.53;;
4375;SDS011;2202;50.866;12.750;2023-02-07T11:52:13;39.17;;;26.83;;
4375;SDS011;2202;50.866;12.750;2023-02-07T11:54:40;37.43;;;28.27;;
4375;SDS011;2202;50.866;12.750;2023-02-07T11:57:14;42.23;;;27.80;;
4375;SDS011;2202;50.866;12.750;2023-02-07T11:59:44;34.73;;;25.67;;
4375;SDS011;2202;50.866;12.750;2023-02-07T12:02:15;39.73;;;28.30;;
4375;SDS011;2202;50.866;12.750;2023-02-07T12:04:44;42.23;;;28.33;;
4375;SDS011;2202;50.866;12.750;2023-02-07T12:07:12;43.57;;;33.07;;
4375;SDS011;2202;50.866;12.750;2023-02-07T12:09:44;48.77;;;33.57;;
4375;SDS011;2202;50.866;12.750;2023-02-07T12:12:17;47.37;;;36.00;;
4375;SDS011;2202;50.866;12.750;2023-02-07T12:14:47;51.67;;;34.60;;
4375;SDS011;2202;50.866;12.750;2023-02-07T12:17:19;51.03;;;34.07;;
4375;SDS011;2202;50.866;12.750;2023-02-07T12:19:51;47.90;;;35.33;;
4375;SDS011;2202;50.866;12.750;2023-02-07T12:22:20;47.90;;;31.87;;
4375;SDS011;2202;50.866;12.750;2023-02-07T12:24:52;40.40;;;29.10;;
4375;SDS011;2202;50.866;12.750;2023-02-07T12:27:24;29.37;;;22.87;;
4375;SDS011;2202;50.866;12.750;2023-02-07T12:29:56;37.13;;;26.17;;
4375;SDS011;2202;50.866;12.750;2023-02-07T12:32:32;34.60;;;25.03;;
4375;SDS011;2202;50.866;12.750;2023-02-07T12:35:05;42.30;;;26.10;;
4375;SDS011;2202;50.866;12.750;2023-02-07T12:37:41;38.13;;;26.07;;
4375;SDS011;2202;50.866;12.750;2023-02-07T12:40:13;35.17;;;24.83;;
4375;SDS011;2202;50.866;12.750;2023-02-07T12:42:48;36.57;;;26.63;;
4375;SDS011;2202;50.866;12.750;2023-02-07T12:45:24;29.80;;;22.77;;
4375;SDS011;2202;50.866;12.750;2023-02-07T12:48:05;38.83;;;23.27;;
4375;SDS011;2202;50.866;12.750;2023-02-07T12:50:45;34.57;;;22.97;;
4375;SDS011;2202;50.866;12.750;2023-02-07T12:53:27;34.63;;;25.00;;
4375;SDS011;2202;50.866;12.750;2023-02-07T12:56:04;32.17;;;22.60;;
4375;SDS011;2202;50.866;12.750;2023-02-07T12:58:45;32.07;;;26.07;;
4375;SDS011;2202;50.866;12.750;2023-02-07T13:01:19;34.73;;;25.50;;
4375;SDS011;2202;50.866;12.750;2023-02-07T13:06:56;38.90;;;28.37;;
4375;SDS011;2202;50.866;12.750;2023-02-07T13:09:31;40.00;;;28.97;;
4375;SDS011;2202;50.866;12.750;2023-02-07T13:12:05;40.60;;;29.33;;
4375;SDS011;2202;50.866;12.750;2023-02-07T13:14:40;38.33;;;27.50;;
4375;SDS011;2202;50.866;12.750;2023-02-07T13:17:27;39.53;;;27.50;;
4375;SDS011;2202;50.866;12.750;2023-02-07T13:20:03;39.13;;;28.63;;
4375;SDS011;2202;50.866;12.750;2023-02-07T13:22:41;47.10;;;28.33;;
4375;SDS011;2202;50.866;12.750;2023-02-07T13:25:13;46.00;;;29.17;;
4375;SDS011;2202;50.866;12.750;2023-02-07T13:27:48;46.47;;;26.37;;
4375;SDS011;2202;50.866;12.750;2023-02-07T13:30:21;36.30;;;26.37;;
4375;SDS011;2202;50.866;12.750;2023-02-07T13:32:49;39.47;;;26.03;;
4375;SDS011;2202;50.866;12.750;2023-02-07T13:35:19;38.20;;;28.47;;
4375;SDS011;2202;50.866;12.750;2023-02-07T13:37:49;50.73;;;28.17;;
4375;SDS011;2202;50.866;12.750;2023-02-07T13:40:28;43.90;;;29.33;;
4375;SDS011;2202;50.866;12.750;2023-02-07T13:43:02;39.80;;;27.97;;
4375;SDS011;2202;50.866;12.750;2023-02-07T13:45:37;40.03;;;29.00;;
4375;SDS011;2202;50.866;12.750;2023-02-07T13:48:13;42.27;;;27.20;;
4375;SDS011;2202;50.866;12.750;2023-02-07T13:50:47;44.37;;;27.90;;
4375;SDS011;2202;50.866;12.750;2023-02-07T13:53:24;45.80;;;26.50;;
4375;SDS011;2202;50.866;12.750;2023-02-07T13:55:59;36.20;;;26.47;;
4375;SDS011;2202;50.866;12.750;2023-02-07T14:01:35;37.17;;;24.87;;
4375;SDS011;2202;50.866;12.750;2023-02-07T14:04:11;47.27;;;26.20;;
4375;SDS011;2202;50.866;12.750;2023-02-07T14:06:38;54.23;;;30.10;;
4375;SDS011;2202;50.866;12.750;2023-02-07T14:09:09;49.13;;;26.13;;
4375;SDS011;2202;50.866;12.750;2023-02-07T14:11:42;44.47;;;28.73;;
4375;SDS011;2202;50.866;12.750;2023-02-07T14:14:15;44.07;;;28.50;;
4375;SDS011;2202;50.866;12.750;2023-02-07T14:16:52;48.73;;;29.97;;
4375;SDS011;2202;50.866;12.750;2023-02-07T14:22:19;50.40;;;30.83;;
4375;SDS011;2202;50.866;12.750;2023-02-07T14:30:34;51.80;;;28.77;;
4375;SDS011;2202;50.866;12.750;2023-02-07T14:33:08;45.87;;;28.73;;
4375;SDS011;2202;50.866;12.750;2023-02-07T14:35:37;45.67;;;29.63;;
4375;SDS011;2202;50.866;12.750;2023-02-07T14:38:21;48.20;;;28.13;;
4375;SDS011;2202;50.866;12.750;2023-02-07T14:40:54;39.90;;;26.90;;
4375;SDS011;2202;50.866;12.750;2023-02-07T14:43:31;51.20;;;30.03;;
4375;SDS011;2202;50.866;12.750;2023-02-07T14:46:05;43.73;;;27.77;;
4375;SDS011;2202;50.866;12.750;2023-02-07T14:48:38;47.43;;;31.20;;
4375;SDS011;2202;50.866;12.750;2023-02-07T14:51:13;50.07;;;31.20;;
4375;SDS011;2202;50.866;12.750;2023-02-07T14:53:43;48.67;;;29.73;;
4375;SDS011;2202;50.866;12.750;2023-02-07T14:56:18;53.30;;;31.67;;
4375;SDS011;2202;50.866;12.750;2023-02-07T14:59:12;52.10;;;30.30;;
4375;SDS011;2202;50.866;12.750;2023-02-07T15:01:42;48.33;;;29.40;;
4375;SDS011;2202;50.866;12.750;2023-02-07T15:04:10;44.27;;;29.43;;
4375;SDS011;2202;50.866;12.750;2023-02-07T15:06:39;48.03;;;30.47;;
4375;SDS011;2202;50.866;12.750;2023-02-07T15:09:16;49.67;;;30.30;;
4375;SDS011;2202;50.866;12.750;2023-02-07T15:11:45;47.60;;;29.97;;
4375;SDS011;2202;50.866;12.750;2023-02-07T15:14:18;48.73;;;30.07;;